Time;durP1;ratioP1;P1;durP2;ratioP2;P2;SDS_P1;SDS_P2;PMS_P1;PMS_P2;Temp;Humidity;BMP_temperature;BMP_pressure;BME280_temperature;BME280_humidity;BME280_pressure;Samples;Min_cycle;Max_cycle;Signal;HPM_P1;HPM_P2
2021/09/21 05:42:37;;;;;;;10.02;5.65;;;;;;;16.11;72.97;97170.63;2487767;28;22205;-63
2021/09/21 05:45:05;;;;;;;6.53;4.95;;;;;;;16.58;72.32;97206.44;5075340;28;20152;-67
2021/09/21 05:47:32;;;;;;;6.63;4.75;;;;;;;16.55;72.20;97162.50;5082947;28;20058;-68
2021/09/21 05:49:59;;;;;;;7.20;4.80;;;;;;;16.99;68.05;97208.66;5082078;28;20052;-65
2021/09/21 05:52:27;;;;;;;4.75;3.90;;;;;;;17.25;66.56;97222.88;5066978;28;20049;-69
2021/09/21 05:54:53;;;;;;;8.88;4.70;;;;;;;17.47;66.88;97235.56;5098802;28;20044;-66
2021/09/21 05:57:20;;;;;;;5.18;4.10;;;;;;;17.42;64.93;97215.59;5071904;28;20451;-66
2021/09/21 05:59:47;;;;;;;4.85;3.80;;;;;;;16.85;63.50;97158.38;5063459;28;20068;-68
2021/09/21 06:02:14;;;;;;;4.28;3.80;;;;;;;17.37;63.50;97224.44;5082637;28;20062;-67
2021/09/21 06:04:41;;;;;;;6.03;3.90;;;;;;;16.34;63.63;97038.75;5070068;28;20517;-68
2021/09/21 06:07:08;;;;;;;10.70;9.60;;;;;;;17.82;62.22;97245.72;5082118;28;20507;-63
2021/09/21 06:09:35;;;;;;;4.57;3.97;;;;;;;17.84;62.50;97243.31;5083144;28;20454;-68
2021/09/21 06:12:02;;;;;;;6.57;3.72;;;;;;;17.99;59.60;97241.97;5082823;28;20135;-66
2021/09/21 06:14:28;;;;;;;5.28;3.72;;;;;;;17.56;59.63;97187.50;5080128;28;20044;-67
2021/09/21 06:16:55;;;;;;;5.53;4.00;;;;;;;18.02;59.99;97250.34;5081495;28;20065;-66
2021/09/21 06:19:22;;;;;;;3.70;3.30;;;;;;;17.13;60.05;97124.59;5065247;28;20068;-66
2021/09/21 06:21:49;;;;;;;4.68;4.10;;;;;;;18.01;59.87;97253.56;5062914;28;20052;-66
2021/09/21 06:24:16;;;;;;;4.20;3.42;;;;;;;17.60;58.74;97161.06;5066792;28;20051;-68
2021/09/21 06:26:42;;;;;;;5.78;3.50;;;;;;;17.15;58.21;97133.38;5071501;28;20060;-67
2021/09/21 06:29:09;;;;;;;5.13;3.38;;;;;;;18.08;56.95;97281.56;5066729;28;20044;-67
2021/09/21 06:31:36;;;;;;;4.20;3.63;;;;;;;18.18;56.14;97269.44;5066515;28;20059;-69
2021/09/21 06:34:03;;;;;;;4.28;3.70;;;;;;;18.23;56.54;97274.59;5066171;28;20515;-68
2021/09/21 06:36:29;;;;;;;6.75;3.58;;;;;;;18.28;56.33;97278.94;5067606;28;20059;-65
2021/09/21 06:38:56;;;;;;;5.28;3.50;;;;;;;17.77;56.26;97187.31;5081951;28;20124;-67
2021/09/21 06:41:23;;;;;;;4.82;3.95;;;;;;;17.33;54.48;97117.22;5074705;28;20048;-66
2021/09/21 06:43:49;;;;;;;4.88;3.55;;;;;;;18.34;55.33;97222.00;5072559;28;20056;-68
2021/09/21 06:46:17;;;;;;;4.72;3.97;;;;;;;18.82;54.57;97247.16;5085633;28;20053;-70
2021/09/21 06:48:43;;;;;;;5.03;3.30;;;;;;;19.04;53.89;97287.78;5085852;28;20052;-65
2021/09/21 06:51:10;;;;;;;5.28;3.67;;;;;;;18.10;53.91;97124.91;5067996;28;20779;-63
2021/09/21 06:53:37;;;;;;;5.15;4.30;;;;;;;18.93;53.63;97259.84;5067972;28;20055;-68
2021/09/21 06:56:04;;;;;;;5.78;5.00;;;;;;;19.40;52.67;97298.19;5084961;28;20446;-67
2021/09/21 06:58:33;;;;;;;6.43;4.32;;;;;;;19.39;52.70;97305.00;5071656;28;20045;-64
2021/09/21 07:01:00;;;;;;;4.53;3.63;;;;;;;18.92;52.06;97247.00;5080035;28;20055;-68
2021/09/21 07:03:27;;;;;;;5.95;4.07;;;;;;;19.46;51.27;97285.25;5081896;28;20148;-64
2021/09/21 07:05:54;;;;;;;7.75;3.97;;;;;;;19.57;51.99;97315.22;5082176;28;20079;-71
2021/09/21 07:08:21;;;;;;;7.53;5.35;;;;;;;19.44;52.79;97321.41;5073970;28;20047;-69
2021/09/21 07:10:47;;;;;;;9.32;5.30;;;;;;;19.26;52.53;97312.38;5086033;28;20424;-65
2021/09/21 07:13:14;;;;;;;6.47;4.30;;;;;;;17.06;52.39;96957.50;5084140;28;20098;-68
2021/09/21 07:15:41;;;;;;;4.57;4.07;;;;;;;19.45;52.99;97286.47;5079578;28;20527;-69
2021/09/21 07:18:11;;;;;;;4.53;3.75;;;;;;;19.31;51.81;97252.97;5078866;28;20039;-64
2021/09/21 07:20:38;;;;;;;4.40;3.80;;;;;;;19.82;51.46;97279.13;5082460;28;20127;-63
2021/09/21 07:23:05;;;;;;;4.65;3.58;;;;;;;20.19;50.68;97307.06;5072658;28;20056;-63
2021/09/21 07:25:33;;;;;;;5.43;4.57;;;;;;;19.66;51.30;97223.53;5064754;28;20057;-67
2021/09/21 07:28:02;;;;;;;4.80;3.60;;;;;;;19.93;50.01;97260.06;5075719;28;20169;-64
2021/09/21 07:30:34;;;;;;;6.78;3.92;;;;;;;20.45;49.77;97309.03;5083834;28;20265;-70
2021/09/21 07:33:00;;;;;;;4.72;3.45;;;;;;;20.58;48.30;97301.56;5083271;28;20062;-66
2021/09/21 07:35:27;;;;;;;6.15;4.57;;;;;;;18.57;49.27;96980.91;5083616;28;20054;-65
2021/09/21 07:37:54;;;;;;;4.32;3.92;;;;;;;20.51;48.44;97307.31;5076096;28;20055;-63
2021/09/21 07:40:21;;;;;;;3.97;3.63;;;;;;;20.65;48.60;97310.69;5084779;28;20050;-63
2021/09/21 07:42:49;;;;;;;7.22;3.97;;;;;;;20.83;48.70;97313.16;5084393;28;20082;-62
2021/09/21 07:45:16;;;;;;;6.25;3.75;;;;;;;21.01;48.13;97313.63;5085068;28;20252;-63
2021/09/21 07:47:43;;;;;;;4.30;3.78;;;;;;;21.07;47.88;97311.91;5076896;28;20058;-62
2021/09/21 07:50:11;;;;;;;5.55;3.90;;;;;;;20.03;48.03;97155.03;5084208;28;20531;-61
2021/09/21 07:52:39;;;;;;;4.15;3.72;;;;;;;20.90;47.52;97267.94;5082684;28;20503;-64
2021/09/21 07:55:06;;;;;;;5.50;4.32;;;;;;;21.17;46.51;97288.34;5083357;28;20051;-65
2021/09/21 07:57:34;;;;;;;3.90;3.50;;;;;;;21.38;46.67;97299.19;5081541;28;20048;-63
2021/09/21 08:00:01;;;;;;;5.10;3.72;;;;;;;21.58;46.20;97330.97;5069063;28;20129;-61
2021/09/21 08:02:27;;;;;;;8.27;4.97;;;;;;;21.61;46.12;97299.06;5071527;28;20052;-67
2021/09/21 08:04:55;;;;;;;4.45;3.90;;;;;;;21.53;45.55;97263.81;5081804;28;20052;-66
2021/09/21 08:07:22;;;;;;;4.35;3.97;;;;;;;21.28;45.91;97249.47;5083583;28;20056;-68
2021/09/21 08:09:48;;;;;;;9.25;4.30;;;;;;;21.96;44.33;97329.34;5077047;28;20459;-64
2021/09/21 08:12:15;;;;;;;4.25;3.85;;;;;;;21.52;44.38;97298.88;5075742;28;20578;-68
2021/09/21 08:14:45;;;;;;;4.95;3.75;;;;;;;21.32;46.05;97250.22;5065490;28;20572;-64
2021/09/21 08:17:12;;;;;;;4.32;3.90;;;;;;;21.50;45.82;97261.88;5077264;28;20194;-65
2021/09/21 08:19:39;;;;;;;8.73;4.15;;;;;;;21.44;45.58;97249.53;5067900;28;20127;-64
2021/09/21 08:22:05;;;;;;;4.18;3.60;;;;;;;21.81;45.65;97299.06;5064710;28;20098;-65
2021/09/21 08:24:33;;;;;;;4.20;3.67;;;;;;;21.88;44.59;97327.91;5064890;28;20201;-66
2021/09/21 08:27:00;;;;;;;4.00;3.60;;;;;;;21.99;44.72;97336.91;5064175;28;20079;-66
2021/09/21 08:29:27;;;;;;;4.90;4.40;;;;;;;21.90;45.76;97333.91;5064472;28;20512;-63
2021/09/21 08:31:54;;;;;;;9.35;6.53;;;;;;;21.96;45.78;97334.97;5064537;28;20044;-63
2021/09/21 08:34:21;;;;;;;4.93;4.43;;;;;;;21.60;45.69;97272.13;5063273;28;20098;-63
2021/09/21 08:36:50;;;;;;;5.63;3.83;;;;;;;22.13;45.34;97339.41;5068140;28;20068;-63
2021/09/21 08:39:18;;;;;;;5.45;4.32;;;;;;;21.76;45.32;97320.13;5079422;28;20055;-65
2021/09/21 08:41:46;;;;;;;6.15;4.43;;;;;;;21.49;45.86;97254.66;5073306;28;20094;-64
2021/09/21 08:44:13;;;;;;;3.83;3.53;;;;;;;22.11;45.30;97341.88;5080319;28;20056;-64
2021/09/21 08:46:40;;;;;;;4.00;3.67;;;;;;;22.21;43.87;97340.81;5093112;28;20044;-64
2021/09/21 08:49:07;;;;;;;4.03;3.63;;;;;;;21.77;44.42;97285.03;5083946;28;20059;-64
2021/09/21 08:51:34;;;;;;;5.03;3.38;;;;;;;21.89;43.80;97318.19;5084253;28;20128;-64
2021/09/21 08:54:00;;;;;;;13.40;6.50;;;;;;;21.09;46.24;97258.75;5083371;28;20535;-66
2021/09/21 08:56:27;;;;;;;7.22;4.43;;;;;;;21.73;45.02;97306.88;5081942;28;20485;-65
2021/09/21 08:59:07;;;;;;;8.85;6.32;;;;;;;21.59;45.54;97343.81;5076730;28;20057;-63
2021/09/21 09:01:41;;;;;;;7.13;3.90;;;;;;;22.16;45.56;97349.81;5061768;28;20105;-66
2021/09/21 09:04:10;;;;;;;4.45;4.05;;;;;;;22.68;44.15;97346.16;5085992;28;20048;-68
2021/09/21 09:06:44;;;;;;;4.50;3.67;;;;;;;23.12;42.56;97342.53;5077514;28;20051;-66
2021/09/21 09:09:23;;;;;;;4.15;3.75;;;;;;;23.06;43.37;97324.56;5004566;28;20050;-66
2021/09/21 09:11:56;;;;;;;4.32;3.95;;;;;;;23.30;43.50;97354.97;4992798;28;20683;-67
2021/09/21 09:14:37;;;;;;;7.68;4.50;;;;;;;23.55;42.78;97351.44;4945569;28;20072;-69
2021/09/21 09:17:08;;;;;;;4.80;3.88;;;;;;;23.87;42.04;97349.25;4960430;28;20065;-71
2021/09/21 09:19:40;;;;;;;4.63;3.90;;;;;;;24.28;40.74;97350.44;4960145;28;20860;-67
2021/09/21 09:22:27;;;;;;;3.72;3.33;;;;;;;23.84;40.71;97279.41;4962176;28;20057;-68
2021/09/21 09:24:59;;;;;;;3.88;3.47;;;;;;;24.08;41.63;97350.66;4961406;28;20057;-65
2021/09/21 09:27:38;;;;;;;4.30;3.92;;;;;;;24.39;41.08;97351.66;4961293;28;20054;-64
2021/09/21 09:30:09;;;;;;;4.53;3.95;;;;;;;24.49;40.02;97361.88;4960290;28;20062;-69
2021/09/21 09:32:51;;;;;;;4.75;3.90;;;;;;;24.71;38.04;97342.13;4976420;28;20600;-63
2021/09/21 09:35:35;;;;;;;2.97;2.78;;;;;;;22.68;38.39;97069.38;4961212;28;20150;-63
2021/09/21 09:38:07;;;;;;;3.70;3.40;;;;;;;23.86;40.05;97329.88;4956385;28;20478;-70
2021/09/21 09:40:55;;;;;;;5.47;3.70;;;;;;;23.69;41.16;97308.59;4961925;28;20136;-69
2021/09/21 09:43:25;;;;;;;3.42;3.13;;;;;;;23.78;40.08;97346.28;4991906;28;20198;-62
2021/09/21 09:45:54;;;;;;;3.13;2.80;;;;;;;23.28;39.00;97300.94;4961388;28;20051;-65
2021/09/21 09:48:23;;;;;;;4.82;3.28;;;;;;;22.32;39.02;97253.03;4961234;28;20086;-64
2021/09/21 09:50:55;;;;;;;3.13;2.92;;;;;;;22.70;40.54;97284.38;4964258;28;20053;-66
2021/09/21 09:53:24;;;;;;;3.42;3.13;;;;;;;23.16;40.21;97334.75;4959645;28;20057;-65
2021/09/21 09:55:54;;;;;;;3.72;3.30;;;;;;;22.91;39.66;97284.56;4974958;28;20058;-69
2021/09/21 09:58:22;;;;;;;3.55;3.25;;;;;;;23.18;40.53;97335.09;4965196;28;20054;-66
2021/09/21 10:00:49;;;;;;;3.88;2.55;;;;;;;23.09;40.02;97326.47;4963129;28;20073;-65
2021/09/21 10:03:19;;;;;;;4.88;3.03;;;;;;;23.13;39.89;97293.25;4964534;28;20540;-66
2021/09/21 10:05:48;;;;;;;3.03;2.83;;;;;;;21.64;38.73;97044.44;4995038;28;20066;-70
2021/09/21 10:08:16;;;;;;;3.47;3.20;;;;;;;22.79;39.54;97233.69;4993331;28;20055;-69
2021/09/21 10:10:42;;;;;;;3.17;2.80;;;;;;;23.35;38.60;97322.53;4981487;28;20055;-71
2021/09/21 10:13:13;;;;;;;3.95;3.20;;;;;;;23.13;39.30;97298.91;4962320;28;20122;-64
2021/09/21 10:15:41;;;;;;;2.90;2.67;;;;;;;23.53;38.91;97329.28;4963603;28;20049;-68
2021/09/21 10:18:17;;;;;;;5.05;3.15;;;;;;;22.65;37.53;97155.00;4964615;28;20115;-67
2021/09/21 10:20:45;;;;;;;3.38;3.08;;;;;;;23.68;39.20;97323.97;4951406;28;20055;-66
2021/09/21 10:23:12;;;;;;;4.05;3.65;;;;;;;23.56;41.58;97282.31;4962957;28;20529;-69
2021/09/21 10:25:42;;;;;;;6.57;3.38;;;;;;;22.75;42.08;97149.03;4964367;28;20133;-68
2021/09/21 10:28:21;;;;;;;4.38;3.97;;;;;;;23.51;41.33;97302.66;4964001;28;20136;-66
2021/09/21 10:30:56;;;;;;;6.70;3.70;;;;;;;23.85;41.04;97319.81;4964579;28;20058;-69
2021/09/21 10:33:25;;;;;;;3.50;3.20;;;;;;;23.83;40.98;97317.44;4961820;28;20433;-67
2021/09/21 10:35:53;;;;;;;5.40;3.75;;;;;;;23.27;43.05;97318.31;4962118;28;20055;-69
2021/09/21 10:38:19;;;;;;;4.75;3.70;;;;;;;22.95;41.56;97208.19;4963642;28;20055;-66
2021/09/21 10:40:50;;;;;;;6.65;4.70;;;;;;;23.37;41.18;97297.44;4962299;28;20062;-70
2021/09/21 10:43:26;;;;;;;6.03;4.00;;;;;;;23.76;41.05;97314.00;4942920;29;20128;-68
2021/09/21 10:46:06;;;;;;;4.68;4.15;;;;;;;22.62;40.86;97138.94;4962158;28;20057;-69
2021/09/21 10:48:36;;;;;;;7.65;3.90;;;;;;;23.93;41.79;97309.88;4987169;28;20054;-67
2021/09/21 10:51:05;;;;;;;4.57;3.85;;;;;;;23.98;39.82;97309.31;4963537;28;20054;-68
2021/09/21 10:53:32;;;;;;;7.10;4.25;;;;;;;24.03;40.72;97327.78;4962393;28;20576;-68
2021/09/21 10:56:02;;;;;;;6.85;4.90;;;;;;;23.87;42.03;97326.59;4963433;28;20616;-65
2021/09/21 10:58:29;;;;;;;5.13;3.47;;;;;;;23.03;41.19;97215.22;4963400;28;20054;-69
2021/09/21 11:00:57;;;;;;;6.78;4.18;;;;;;;23.88;39.97;97321.75;4963957;28;20078;-65
2021/09/21 11:03:26;;;;;;;5.18;4.50;;;;;;;23.63;40.75;97248.16;4962938;28;20070;-68
2021/09/21 11:05:57;;;;;;;5.85;3.95;;;;;;;24.21;40.43;97323.16;4963725;28;20089;-66
2021/09/21 11:08:34;;;;;;;7.28;4.35;;;;;;;24.19;40.34;97324.81;4962692;28;20066;-66
2021/09/21 11:11:04;;;;;;;8.48;4.57;;;;;;;24.45;39.79;97332.88;4962164;28;20051;-69
2021/09/21 11:13:37;;;;;;;5.97;4.10;;;;;;;24.40;39.34;97346.81;4958347;28;20540;-68
2021/09/21 11:16:05;;;;;;;6.82;4.70;;;;;;;24.52;39.55;97304.28;4962520;28;20054;-66
2021/09/21 11:18:34;;;;;;;9.15;5.28;;;;;;;24.35;39.20;97266.03;4968100;28;20070;-66
2021/09/21 11:21:04;;;;;;;4.97;4.32;;;;;;;24.66;38.88;97329.34;4963221;28;20062;-68
2021/09/21 11:23:33;;;;;;;7.80;3.88;;;;;;;24.50;38.82;97337.94;4962793;28;20055;-69
2021/09/21 11:26:03;;;;;;;5.18;3.55;;;;;;;23.82;40.09;97244.31;4962277;28;20051;-68
2021/09/21 11:28:37;;;;;;;8.02;5.30;;;;;;;23.74;39.83;97276.91;4963004;28;20062;-68
2021/09/21 11:31:06;;;;;;;7.15;5.57;;;;;;;23.71;39.94;97306.88;4963653;28;20061;-66
2021/09/21 11:33:39;;;;;;;7.95;5.28;;;;;;;23.54;40.09;97318.72;4993892;28;20058;-68
2021/09/21 11:36:08;;;;;;;5.03;4.53;;;;;;;23.31;40.48;97279.44;4963232;28;20070;-67
2021/09/21 11:38:41;;;;;;;10.70;4.47;;;;;;;21.92;40.12;97040.09;4962850;28;20150;-67
2021/09/21 11:41:10;;;;;;;5.35;4.60;;;;;;;23.35;41.40;97316.88;4963704;28;20086;-66
2021/09/21 11:43:38;;;;;;;9.85;6.15;;;;;;;21.31;41.09;97034.41;4962931;28;20073;-67
2021/09/21 11:46:30;;;;;;;6.32;3.75;;;;;;;22.11;41.95;97291.06;4962355;28;20051;-64
2021/09/21 11:48:59;;;;;;;4.53;3.72;;;;;;;21.74;42.50;97302.81;4943938;28;20105;-69
2021/09/21 11:51:29;;;;;;;4.85;4.43;;;;;;;22.26;42.33;97329.00;4985483;28;20423;-67
2021/09/21 11:53:56;;;;;;;8.15;4.85;;;;;;;21.90;42.20;97240.03;5009793;28;20054;-69
2021/09/21 11:56:23;;;;;;;6.13;4.80;;;;;;;22.62;42.42;97319.69;4962027;28;20047;-65
2021/09/21 11:58:57;;;;;;;6.60;4.50;;;;;;;22.34;43.05;97321.97;4962897;28;20066;-69
2021/09/21 12:01:25;;;;;;;6.63;4.45;;;;;;;22.04;41.82;97262.22;4951784;28;20506;-66
2021/09/21 12:03:55;;;;;;;4.20;3.78;;;;;;;21.92;42.07;97262.94;4962185;28;20054;-64
2021/09/21 12:06:38;;;;;;;5.80;3.70;;;;;;;21.83;41.99;97303.03;4992726;28;20043;-63
2021/09/21 12:09:06;;;;;;;6.05;4.20;;;;;;;21.92;42.61;97310.91;4962605;28;20086;-66
2021/09/21 12:11:36;;;;;;;6.38;4.57;;;;;;;22.39;42.08;97307.31;4961558;28;20537;-68
2021/09/21 12:14:05;;;;;;;8.57;5.43;;;;;;;21.98;44.07;97300.69;4962949;28;20043;-68
2021/09/21 12:16:32;;;;;;;4.78;4.05;;;;;;;21.29;44.22;97290.53;4962419;28;20065;-65
2021/09/21 12:19:00;;;;;;;5.47;4.97;;;;;;;21.10;44.81;97305.41;4961937;28;20112;-65
2021/09/21 12:21:30;;;;;;;8.88;4.80;;;;;;;21.26;44.87;97319.56;4960648;28;20066;-64
2021/09/21 12:23:57;;;;;;;5.10;4.50;;;;;;;20.80;45.27;97229.56;4960268;28;20134;-66
2021/09/21 12:26:24;;;;;;;5.97;4.60;;;;;;;20.23;45.14;97212.16;4962570;28;20050;-67
2021/09/21 12:28:53;;;;;;;6.90;5.35;;;;;;;20.98;45.59;97291.97;4961234;28;20551;-64
2021/09/21 12:31:26;;;;;;;6.03;4.32;;;;;;;20.85;45.36;97302.25;4960951;28;20049;-69
2021/09/21 12:33:59;;;;;;;4.72;4.10;;;;;;;20.47;45.00;97300.97;4961851;28;20120;-66
2021/09/21 12:36:34;;;;;;;7.95;4.18;;;;;;;19.99;44.79;97228.22;4962106;28;20054;-68
2021/09/21 12:39:07;;;;;;;7.38;6.40;;;;;;;20.37;45.92;97296.31;4961010;28;20430;-69
2021/09/21 12:41:39;;;;;;;8.45;5.90;;;;;;;20.87;45.04;97291.34;4961591;28;20152;-64
2021/09/21 12:44:10;;;;;;;5.82;5.22;;;;;;;21.39;44.59;97283.06;4961917;28;20476;-66
2021/09/21 12:46:41;;;;;;;6.30;4.07;;;;;;;21.17;43.66;97254.53;4961290;28;20105;-69
2021/09/21 12:49:11;;;;;;;5.50;4.70;;;;;;;20.86;44.64;97239.06;4961917;28;20605;-66
2021/09/21 12:51:43;;;;;;;5.32;4.82;;;;;;;21.11;45.35;97287.28;4962358;28;20654;-65
2021/09/21 12:54:12;;;;;;;5.03;4.20;;;;;;;21.21;44.61;97294.72;4968516;28;20058;-66
2021/09/21 12:56:57;;;;;;;4.45;3.92;;;;;;;20.30;45.21;97262.66;5030197;28;20058;-67
2021/09/21 12:59:27;;;;;;;5.97;4.80;;;;;;;19.69;44.30;97098.19;4982102;28;20059;-69
2021/09/21 13:01:54;;;;;;;7.18;4.63;;;;;;;21.19;44.64;97290.75;4961559;28;20047;-67
2021/09/21 13:04:39;;;;;;;5.63;4.40;;;;;;;20.87;44.72;97302.63;4961281;28;20506;-68
2021/09/21 13:07:06;;;;;;;6.25;4.75;;;;;;;20.58;44.07;97298.75;4961770;28;20047;-67
2021/09/21 13:09:33;;;;;;;6.18;5.07;;;;;;;20.91;44.99;97332.28;4961270;28;20077;-66
2021/09/21 13:11:59;;;;;;;6.63;4.93;;;;;;;20.94;45.15;97302.50;4960867;28;20134;-69
2021/09/21 13:14:26;;;;;;;9.88;5.80;;;;;;;18.53;44.17;96915.63;4961653;28;20055;-68
2021/09/21 13:16:53;;;;;;;5.50;5.00;;;;;;;21.45;44.14;97293.38;4960689;28;20059;-68
2021/09/21 13:19:20;;;;;;;6.38;5.25;;;;;;;21.42;42.93;97260.44;4960809;28;20584;-67
2021/09/21 13:21:48;;;;;;;10.82;5.38;;;;;;;21.49;43.91;97282.84;4961004;28;20159;-67
2021/09/21 13:24:14;;;;;;;8.40;5.25;;;;;;;21.39;43.43;97227.50;4961939;28;20150;-67
2021/09/21 13:26:41;;;;;;;5.10;4.70;;;;;;;21.14;43.61;97289.22;4961908;28;20061;-69
2021/09/21 13:29:08;;;;;;;11.23;6.90;;;;;;;20.91;44.99;97280.81;4960889;28;20612;-69
2021/09/21 13:31:35;;;;;;;5.82;5.22;;;;;;;21.03;44.20;97288.66;4961639;28;20063;-69
2021/09/21 13:34:03;;;;;;;7.95;5.13;;;;;;;20.93;44.67;97289.63;4960335;28;20054;-70
2021/09/21 13:36:31;;;;;;;5.55;4.93;;;;;;;20.91;44.86;97261.09;4961870;28;20120;-70
2021/09/21 13:38:58;;;;;;;6.38;4.88;;;;;;;20.49;44.10;97169.03;4960695;28;20066;-70
2021/09/21 13:41:27;;;;;;;6.25;4.80;;;;;;;21.02;43.92;97229.94;4960625;28;20057;-70
2021/09/21 13:44:11;;;;;;;6.22;5.07;;;;;;;22.48;41.29;97248.19;4961310;28;20058;-70
2021/09/21 13:46:38;;;;;;;7.80;5.60;;;;;;;22.91;39.25;97162.28;4962182;28;20600;-70
2021/09/21 13:49:22;;;;;;;8.52;6.05;;;;;;;23.63;38.76;97265.13;4960771;28;20075;-69
2021/09/21 13:52:09;;;;;;;;;;;;;;;23.44;39.39;97291.56;4976782;28;20118;-70
2021/09/21 13:54:55;;;;;;;6.53;5.13;;;;;;;23.11;39.83;97275.97;5063078;28;19927;-69
2021/09/21 13:57:40;;;;;;;6.07;5.47;;;;;;;24.36;37.33;97295.94;5063231;28;20059;-70
2021/09/21 14:00:25;;;;;;;6.88;5.60;;;;;;;25.43;35.84;97293.81;5063247;28;20228;-70
2021/09/21 14:02:53;;;;;;;6.82;5.07;;;;;;;23.99;37.70;97293.94;5062079;28;20139;-70
2021/09/21 14:05:21;;;;;;;6.70;4.85;;;;;;;23.40;38.17;97302.19;5062968;28;20131;-70
2021/09/21 14:07:48;;;;;;;7.70;5.00;;;;;;;22.78;38.95;97271.66;5063582;28;20383;-70
2021/09/21 14:10:16;;;;;;;9.27;5.68;;;;;;;22.76;40.47;97299.53;5061428;28;20507;-70
2021/09/21 14:12:43;;;;;;;8.73;6.50;;;;;;;21.32;43.17;97284.03;5062091;28;20060;-70
2021/09/21 14:15:13;;;;;;;7.20;4.93;;;;;;;20.11;44.59;97238.03;5063177;28;20155;-69
2021/09/21 14:17:44;;;;;;;7.07;4.88;;;;;;;20.51;44.68;97310.94;5063291;28;20519;-70
2021/09/21 14:20:14;;;;;;;8.43;6.32;;;;;;;20.17;45.87;97273.72;5061578;28;20072;-70
2021/09/21 14:22:42;;;;;;;6.35;5.18;;;;;;;20.15;45.64;97266.94;5061756;28;20056;-69
2021/09/21 14:25:09;;;;;;;6.72;5.03;;;;;;;19.96;46.25;97242.31;5062857;28;20052;-69
2021/09/21 14:27:36;;;;;;;7.03;5.70;;;;;;;20.17;45.91;97303.91;5063201;28;20063;-68
2021/09/21 14:30:08;;;;;;;7.32;5.75;;;;;;;19.97;46.67;97306.56;5061485;28;20080;-68
2021/09/21 14:32:36;;;;;;;6.07;5.43;;;;;;;19.77;46.80;97307.69;5063306;28;20063;-68
2021/09/21 14:35:03;;;;;;;6.32;5.45;;;;;;;19.70;47.62;97324.66;5062819;28;20071;-69
2021/09/21 14:37:30;;;;;;;5.80;5.15;;;;;;;19.73;47.13;97306.97;5061122;28;20055;-68
2021/09/21 14:39:57;;;;;;;5.07;4.57;;;;;;;19.12;47.56;97227.50;5062577;28;20045;-69
2021/09/21 14:42:24;;;;;;;6.82;5.47;;;;;;;19.80;47.32;97312.47;5061458;28;20059;-69
2021/09/21 14:44:50;;;;;;;8.88;5.38;;;;;;;19.50;47.36;97257.09;5064739;28;20075;-70
2021/09/21 14:47:17;;;;;;;9.40;6.80;;;;;;;19.63;47.68;97310.72;5066238;28;20060;-69
2021/09/21 14:49:45;;;;;;;9.68;5.07;;;;;;;19.23;48.13;97306.81;5064973;28;20150;-70
2021/09/21 14:52:12;;;;;;;8.10;6.40;;;;;;;19.25;48.38;97332.47;5048117;28;20051;-69
2021/09/21 14:54:39;;;;;;;9.52;7.50;;;;;;;19.09;48.67;97318.22;4964358;28;20054;-69
2021/09/21 14:57:06;;;;;;;12.98;9.13;;;;;;;19.31;48.07;97317.56;4964812;28;20146;-69
2021/09/21 14:59:32;;;;;;;9.90;6.78;;;;;;;19.27;48.01;97335.63;4962435;28;20059;-70
2021/09/21 15:02:37;;;;;;;10.32;6.78;;;;;;;19.37;48.23;97318.69;4964277;28;20559;-69
2021/09/21 15:05:04;;;;;;;6.82;5.20;;;;;;;19.29;48.19;97310.78;4964005;28;20510;-70
2021/09/21 15:07:31;;;;;;;10.30;6.35;;;;;;;19.25;48.46;97316.38;4965180;28;20079;-68
2021/09/21 15:09:58;;;;;;;9.48;6.78;;;;;;;19.37;48.91;97318.69;4964548;28;20061;-68
2021/09/21 15:12:25;;;;;;;16.15;11.05;;;;;;;18.87;48.58;97255.91;4963432;28;20047;-68
2021/09/21 15:14:52;;;;;;;19.65;13.68;;;;;;;19.06;48.93;97308.59;4962463;28;20070;-68
2021/09/21 15:17:19;;;;;;;6.63;5.60;;;;;;;18.99;48.86;97330.34;4964813;28;20531;-68
2021/09/21 15:19:51;;;;;;;9.32;6.97;;;;;;;18.67;48.65;97262.56;4964152;28;20584;-68
2021/09/21 15:22:18;;;;;;;8.55;7.22;;;;;;;19.32;49.25;97350.06;4964859;28;20055;-69
2021/09/21 15:24:44;;;;;;;9.27;5.55;;;;;;;19.36;49.59;97339.56;4963139;28;20134;-68
2021/09/21 15:27:12;;;;;;;13.98;8.35;;;;;;;19.34;48.54;97339.22;4962753;28;20138;-69
2021/09/21 15:29:38;;;;;;;9.27;6.25;;;;;;;19.34;48.75;97355.25;4964020;28;20057;-69
2021/09/21 15:32:05;;;;;;;9.85;6.25;;;;;;;19.30;49.17;97360.91;4962778;28;20054;-69
2021/09/21 15:34:32;;;;;;;8.18;6.28;;;;;;;19.31;49.42;97365.34;4963066;28;20062;-71
2021/09/21 15:37:00;;;;;;;9.55;5.80;;;;;;;19.27;50.34;97364.53;4964030;28;20074;-72
2021/09/21 15:39:27;;;;;;;6.72;5.65;;;;;;;18.85;49.21;97280.78;4963832;28;20619;-71
2021/09/21 15:44:40;;;;;;;7.60;6.13;;;;;;;19.28;50.17;97360.53;4963652;28;20055;-70
2021/09/21 15:47:10;;;;;;;8.43;7.07;;;;;;;19.18;49.62;97361.44;4962248;28;20516;-69
2021/09/21 15:49:38;;;;;;;7.65;5.72;;;;;;;19.17;50.48;97359.81;4962419;28;20535;-69
2021/09/21 15:52:06;;;;;;;11.63;5.78;;;;;;;19.09;50.65;97363.97;4974155;28;20482;-70
2021/09/21 15:54:34;;;;;;;8.05;5.72;;;;;;;18.62;51.22;97339.56;5063886;28;20091;-69
2021/09/21 15:57:11;;;;;;;8.18;5.53;;;;;;;17.67;51.16;97193.81;5065360;28;20044;-71
2021/09/21 15:59:38;;;;;;;26.13;13.45;;;;;;;18.54;50.73;97340.84;5064204;28;20067;-69
2021/09/21 16:02:07;;;;;;;15.60;8.63;;;;;;;18.55;51.34;97356.50;5065274;28;20456;-69
2021/09/21 16:04:34;;;;;;;6.70;5.97;;;;;;;17.81;51.38;97289.75;5063718;28;20078;-69
2021/09/21 16:07:03;;;;;;;18.50;10.30;;;;;;;18.24;52.29;97365.91;5065039;28;20523;-70
2021/09/21 16:09:34;;;;;;;8.15;6.47;;;;;;;17.74;52.52;97329.06;5064781;28;20056;-69
2021/09/21 16:12:00;;;;;;;7.50;5.22;;;;;;;18.11;52.42;97376.84;5064833;28;20052;-68
2021/09/21 16:14:27;;;;;;;10.32;7.40;;;;;;;17.96;53.06;97374.53;5063606;28;20152;-71
2021/09/21 16:16:55;;;;;;;14.82;8.88;;;;;;;17.23;53.66;97272.13;5063186;28;20052;-68
2021/09/21 16:19:22;;;;;;;8.23;5.88;;;;;;;17.44;53.19;97342.00;5065016;28;20147;-68
2021/09/21 16:21:51;;;;;;;7.85;5.45;;;;;;;17.62;53.97;97387.56;5064649;28;20128;-71
2021/09/21 16:24:18;;;;;;;9.48;6.78;;;;;;;17.48;54.20;97396.03;5064244;28;20064;-70
2021/09/21 16:26:47;;;;;;;11.82;7.97;;;;;;;17.42;54.39;97392.03;5064403;28;20044;-69
2021/09/21 16:29:15;;;;;;;8.30;5.80;;;;;;;17.28;54.26;97389.28;5064055;28;20053;-69
2021/09/21 16:31:43;;;;;;;11.43;7.50;;;;;;;17.17;54.15;97399.72;5063056;28;20045;-70
2021/09/21 16:34:09;;;;;;;9.05;6.50;;;;;;;15.22;54.13;97101.31;5064511;28;20079;-68
2021/09/21 16:36:36;;;;;;;7.50;5.90;;;;;;;17.07;54.49;97403.34;5064471;28;20710;-69
2021/09/21 16:39:04;;;;;;;8.93;6.40;;;;;;;16.97;54.36;97412.56;5062945;28;20139;-70
2021/09/21 16:41:31;;;;;;;12.57;6.07;;;;;;;16.89;54.58;97410.97;5064215;28;20128;-70
2021/09/21 16:43:59;;;;;;;7.63;6.30;;;;;;;16.82;55.61;97416.59;5062707;28;20147;-69
2021/09/21 16:46:27;;;;;;;7.53;5.80;;;;;;;16.38;56.37;97359.06;5064441;28;20053;-69
2021/09/21 16:48:54;;;;;;;9.43;6.28;;;;;;;16.53;56.06;97397.03;5064123;28;20503;-69
2021/09/21 16:51:23;;;;;;;7.68;6.07;;;;;;;16.38;56.43;97415.00;5062840;28;20132;-69
2021/09/21 16:53:51;;;;;;;7.03;5.50;;;;;;;16.53;56.51;97438.97;4997956;28;20054;-69
2021/09/21 16:56:18;;;;;;;9.15;6.00;;;;;;;16.48;56.43;97436.59;4980671;28;20086;-69
2021/09/21 16:58:46;;;;;;;10.57;6.07;;;;;;;16.43;56.74;97445.34;4980628;28;20054;-69
2021/09/21 17:01:13;;;;;;;7.40;6.05;;;;;;;16.41;56.81;97442.16;4982181;28;20064;-69
2021/09/21 17:03:42;;;;;;;7.47;5.95;;;;;;;16.31;56.75;97442.94;4981918;28;20057;-70
2021/09/21 17:06:12;;;;;;;7.93;6.55;;;;;;;15.13;57.81;97304.59;4981407;28;20440;-69
2021/09/21 17:08:40;;;;;;;9.38;7.35;;;;;;;16.08;57.62;97447.28;4980983;28;20054;-69
2021/09/21 17:11:07;;;;;;;9.00;7.18;;;;;;;15.40;58.73;97397.22;4980403;28;20058;-69
2021/09/21 17:13:34;;;;;;;10.02;6.57;;;;;;;15.05;58.26;97320.50;4980158;28;20054;-69
2021/09/21 17:16:02;;;;;;;8.88;6.35;;;;;;;15.72;58.74;97457.59;4980484;28;20565;-70
2021/09/21 17:18:30;;;;;;;9.00;6.40;;;;;;;15.75;58.94;97459.59;4981846;28;20054;-69
2021/09/21 17:20:57;;;;;;;10.63;6.43;;;;;;;15.06;59.06;97377.91;4981431;28;20061;-69
2021/09/21 17:23:24;;;;;;;7.50;6.30;;;;;;;14.88;59.24;97370.63;4980698;28;20060;-71
2021/09/21 17:25:51;;;;;;;8.10;6.05;;;;;;;15.52;59.74;97473.06;4981477;28;20140;-70